• Join FlightAware (Why Join?)
  • Login
  • US Flag 
12:55AM EST


 

Airport Tracker/Info


-or-


 

Live Flight TrackerFlight Track Log ✈ FFT346 ✈ 23-Apr-2013 ✈ KLAS - KDEN

Flight Track Log - Related Links

Times and Time Zones

All times are in EDT time to prevent confusion due to time zone crossing. See the FFT346 flight status page for this flight to view local times or setup timezone preferences in your user account.

Time Position Orientation Groundspeed Altitude Reporting Facility
EDT Latitude Longitude Course Direction KTS MPH feet Rate Location/Type
09:47AM 36.0769 -115.1119 93° East 169 194 3,100  Level Los Angeles Center
09:48AM 36.0758 -115.0864 93° East 159 183 3,900 1,620 Climbing Los Angeles Center
09:48AM 36.0775 -115.0453 87° East 192 221 4,900 1,320 Climbing Los Angeles Center
09:49AM 36.0772 -115.0194 91° East 182 209 5,300 2,040 Climbing Los Angeles Center
09:50AM 36.0803 -114.9231 88° East 265 305 8,000 2,520 Climbing Los Angeles Center
09:51AM 36.0969 -114.8242 78° East 292 336 10,500 1,980 Climbing Los Angeles Center
09:52AM 36.1211 -114.6825 78° East 347 399 12,500 2,280 Climbing Los Angeles Center
09:53AM 36.1469 -114.5269 78° East 380 437 15,700 2,640 Climbing Los Angeles Center
09:54AM 36.1694 -114.3936 78° East 392 451 18,000 1,860 Climbing Los Angeles Center
09:55AM 36.1919 -114.2544 79° East 406 467 19,600 1,560 Climbing Los Angeles Center
09:56AM 36.2100 -114.1058 81° East 428 493 21,300 1,800 Climbing Los Angeles Center
09:57AM 36.2286 -113.9506 82° East 448 516 23,300 1,680 Climbing Los Angeles Center
09:58AM 36.2497 -113.7911 81° East 463 533 24,800 1,440 Climbing Los Angeles Center
09:59AM 36.3094 -113.6469 63° Northeast 467 537 26,300 1,560 Climbing Los Angeles Center
10:00AM 36.3778 -113.4675 65° Northeast 477 549 28,000 1,380 Climbing Los Angeles Center
10:01AM 36.4358 -113.3156 65° Northeast 484 557 29,200 1,200 Climbing Los Angeles Center
10:02AM 36.4911 -113.1756 64° Northeast 492 566 30,500 1,380 Climbing Los Angeles Center
10:03AM 36.5503 -113.0214 64° Northeast 495 570 32,100 1,500 Climbing Los Angeles Center
10:04AM 36.6094 -112.8672 64° Northeast 496 571 33,600 1,320 Climbing Los Angeles Center
10:05AM 36.6794 -112.6833 65° Northeast 494 568 34,900 660 Climbing Los Angeles Center
10:06AM 36.7361 -112.5294 65° Northeast 493 567 35,000  Climbing Los Angeles Center
10:07AM 36.7933 -112.3775 65° Northeast 489 563 35,000  Level Los Angeles Center
10:08AM 36.8511 -112.2228 65° Northeast 493 567 35,000  Level Los Angeles Center
10:09AM 36.9097 -112.0653 65° Northeast 499 574 35,000  Level Los Angeles Center
10:10AM 36.9458 -111.9692 65° Northeast 504 580 35,000  Level Denver Center
10:11AM 37.0053 -111.8111 65° Northeast 505 581 35,000  Level Denver Center
10:12AM 37.0639 -111.6525 65° Northeast 506 582 35,000  Level Denver Center
10:13AM 37.1211 -111.4944 66° East 504 580 35,000  Level Denver Center
10:14AM 37.1889 -111.3069 66° East 497 572 35,000  Level Denver Center
10:15AM 37.2453 -111.1492 66° East 497 572 35,000  Level Denver Center
10:16AM 37.3019 -110.9914 66° East 500 575 35,000  Level Denver Center
10:17AM 37.3597 -110.8314 66° East 504 580 35,000  Level Denver Center
10:18AM 37.4153 -110.6719 66° East 501 577 35,100  Climbing Denver Center
10:19AM 37.4808 -110.4894 66° East 503 579 35,000 -60 Descending Denver Center
10:20AM 37.5336 -110.3358 67° East 499 574 35,000  Level Denver Center
10:21AM 37.5869 -110.1833 66° East 497 572 35,000  Level Denver Center
10:22AM 37.6486 -110.0064 66° East 492 566 35,000  Level Denver Center
10:23AM 37.7014 -109.8533 66° East 496 571 35,000  Level Denver Center
10:24AM 37.7636 -109.6753 66° East 496 571 35,000  Level Denver Center
10:25AM 37.8164 -109.5178 67° East 507 583 35,000  Level Denver Center
10:26AM 37.8711 -109.3594 66° East 511 588 35,100  Climbing Denver Center
10:27AM 37.9339 -109.1728 67° East 514 592 35,000  Descending Denver Center
10:28AM 37.9864 -109.0175 67° East 504 580 35,100  Climbing Denver Center
10:29AM 38.0481 -108.8328 67° East 507 583 35,000 -60 Descending Denver Center
10:30AM 38.0961 -108.6858 67° East 505 581 35,000  Level Denver Center
10:31AM 38.1561 -108.5019 67° East 505 581 35,000 -180 Level Denver Center
10:33AM 38.2083 -108.3458 67° East 504 580 34,600 -540 Descending Denver Center
10:34AM 38.2689 -108.1594 67° East 511 588 33,800 -780 Descending Denver Center
10:35AM 38.3372 -107.9519 67° East 500 575 33,000 -420 Descending Denver Center
10:36AM 38.3878 -107.7942 68° East 503 579 33,000  Level Denver Center
10:37AM 38.4381 -107.6378 68° East 501 577 33,000  Level Denver Center
10:38AM 38.5111 -107.4636 62° Northeast 499 574 33,000  Level Denver Center
10:39AM 38.5767 -107.3156 60° Northeast 501 577 33,000  Level Denver Center
10:40AM 38.6456 -107.1619 60° Northeast 501 577 33,000  Level Denver Center
10:41AM 38.7136 -107.0097 60° Northeast 494 568 33,000  Level Denver Center
10:42AM 38.7956 -106.8233 61° Northeast 499 574 33,000 -660 Level Denver Center
10:43AM 38.8650 -106.6658 60° Northeast 508 585 31,700 -1,860 Descending Denver Center
10:44AM 38.9436 -106.4953 59° Northeast 515 593 29,200 -2,280 Descending Denver Center
10:45AM 39.0133 -106.3447 59° Northeast 514 592 27,100 -1,860 Descending Denver Center
10:46AM 39.0692 -106.2222 60° Northeast 505 581 25,500 -1,920 Descending Denver Center
10:47AM 39.1497 -106.0400 60° Northeast 478 550 23,200 -2,040 Descending Denver Center
10:48AM 39.2125 -105.8975 60° Northeast 457 526 21,300 -1,920 Descending Denver Center
10:49AM 39.2811 -105.7403 61° Northeast 430 495 19,300 -1,620 Descending Denver Center
10:50AM 39.3369 -105.6133 60° Northeast 408 470 18,100 -960 Descending Denver Center
10:51AM 39.3894 -105.4925 61° Northeast 388 447 17,400 -960 Descending Denver Center
10:52AM 39.4006 -105.3686 83° East 352 405 16,200 -1,200 Descending Denver Center
10:53AM 39.3864 -105.2425 98° East 341 392 15,000 -1,140 Descending Denver Center
10:54AM 39.3581 -105.1353 109° East 322 371 13,900 -1,020 Descending Denver Center
10:55AM 39.3281 -105.0297 110° East 318 366 13,000 -480 Descending Denver Center
10:56AM 39.3264 -104.9256 91° East 264 304 13,000 -360 Level Denver Center
10:57AM 39.3367 -104.8528 80° East 248 285 12,300 -840 Descending Denver Center
10:59AM 39.3711 -104.7608 64° Northeast 240 276 11,200 -1,020 Descending Denver Center
11:00AM 39.4344 -104.7133 30° Northeast 212 244 10,000 -600 Descending Denver Center
11:01AM 39.4858 -104.6756 30° Northeast 214 246 10,000  Level Denver Center
11:02AM 39.5417 -104.6633 10° North 190 219 10,000  Level Denver Center
11:03AM 39.5936 -104.6636 360° North 189 217 10,000 -420 Level Denver Center
11:04AM 39.6494 -104.6631 360° North 187 215 9,200 -960 Descending Denver Center
11:05AM 39.7011 -104.6622 North 187 215 8,100 -1,080 Descending Denver Center
11:06AM 39.7556 -104.6617 360° North 184 212 7,000 -960 Descending Denver Center
11:07AM 39.7953 -104.6614 360° North 147 169 6,200 -780 Descending Denver Center
11:08AM 39.8344 -104.6617 360° North 133 153 5,400 -780 Descending Denver Center
11:10AM 39.8500 -104.6667 10° North  Level FlightAware Approximate
11:17AM 39.8617 -104.6732 10° North  Level Estimated
11:18AM 39.8617 -104.6732 10° North  Level Estimated